createdAt,value
2017-11-12T00:02:22.198Z,5.80
2017-11-12T00:04:51.676Z,5.80
2017-11-12T00:07:20.933Z,5.80
2017-11-12T00:09:49.393Z,5.70
2017-11-12T00:12:17.887Z,5.70
2017-11-12T00:14:46.355Z,5.70
2017-11-12T00:17:14.857Z,5.70
2017-11-12T00:19:43.324Z,5.70
2017-11-12T00:22:11.794Z,5.70
2017-11-12T00:24:40.299Z,5.70
2017-11-12T00:27:08.773Z,5.60
2017-11-12T00:29:37.271Z,5.70
2017-11-12T00:32:05.188Z,5.70
2017-11-12T00:34:33.668Z,5.70
2017-11-12T00:37:02.137Z,5.70
2017-11-12T00:39:31.376Z,5.70
2017-11-12T00:41:59.655Z,5.70
2017-11-12T00:44:28.236Z,5.70
2017-11-12T00:46:56.726Z,5.60
2017-11-12T00:49:26.301Z,5.60
2017-11-12T00:51:55.010Z,5.50
2017-11-12T00:54:23.487Z,5.60
2017-11-12T00:56:51.957Z,5.50
2017-11-12T00:59:20.424Z,5.50
2017-11-12T01:01:49.660Z,5.50
2017-11-12T01:04:18.128Z,5.40
2017-11-12T01:06:46.772Z,5.50
2017-11-12T01:09:15.242Z,5.60
2017-11-12T01:11:43.957Z,5.50
2017-11-12T01:14:13.250Z,5.50
2017-11-12T01:16:42.605Z,5.50
2017-11-12T01:19:11.084Z,5.50
2017-11-12T01:21:39.546Z,5.60
2017-11-12T01:24:08.022Z,5.60
2017-11-12T01:26:36.557Z,5.50
2017-11-12T01:29:05.044Z,5.60
2017-11-12T01:31:33.534Z,5.60
2017-11-12T01:34:02.026Z,5.60
2017-11-12T01:36:30.560Z,5.60
2017-11-12T01:38:59.032Z,5.70
2017-11-12T01:41:27.514Z,5.70
2017-11-12T01:43:55.652Z,5.70
2017-11-12T01:46:24.133Z,5.70
2017-11-12T01:48:54.133Z,5.60
2017-11-12T01:51:22.712Z,5.60
2017-11-12T01:53:51.184Z,5.60
2017-11-12T01:56:19.700Z,5.60
2017-11-12T01:58:47.440Z,5.60
2017-11-12T02:01:15.905Z,5.60
2017-11-12T02:03:44.212Z,5.60
2017-11-12T02:06:12.681Z,5.60
2017-11-12T02:08:40.796Z,5.60
2017-11-12T02:11:10.295Z,5.60
2017-11-12T02:13:39.532Z,5.60
2017-11-12T02:16:08.009Z,5.50
2017-11-12T02:18:36.487Z,5.60
2017-11-12T02:21:04.761Z,5.60
2017-11-12T02:23:34.001Z,5.60
2017-11-12T02:26:02.104Z,5.50
2017-11-12T02:28:29.897Z,5.50
2017-11-12T02:30:58.783Z,5.50
2017-11-12T02:33:28.000Z,5.50
2017-11-12T02:35:56.120Z,5.40
2017-11-12T02:38:24.574Z,5.50
2017-11-12T02:40:53.154Z,5.50
2017-11-12T02:43:20.951Z,5.50
2017-11-12T02:45:49.753Z,5.40
2017-11-12T02:48:17.525Z,5.40
2017-11-12T02:50:45.760Z,5.50
2017-11-12T02:53:14.223Z,5.40
2017-11-12T02:55:42.327Z,5.40
2017-11-12T02:58:10.460Z,5.40
2017-11-12T03:00:38.925Z,5.40
2017-11-12T03:03:08.331Z,5.40
2017-11-12T03:05:37.583Z,5.20
2017-11-12T03:08:05.943Z,5.20
2017-11-12T03:10:34.404Z,5.20
2017-11-12T03:13:03.641Z,5.20
2017-11-12T03:15:32.112Z,5.20
2017-11-12T03:18:00.589Z,5.20
2017-11-12T03:20:29.064Z,5.20
2017-11-12T03:22:57.535Z,5.20
2017-11-12T03:25:26.265Z,5.30
2017-11-12T03:27:54.052Z,5.20
2017-11-12T03:30:23.424Z,5.10
2017-11-12T03:32:51.717Z,5.10
2017-11-12T03:35:20.184Z,5.10
2017-11-12T03:37:48.664Z,5.00
2017-11-12T03:40:17.132Z,5.10
2017-11-12T03:42:45.695Z,5.00
2017-11-12T03:45:14.937Z,5.10
2017-11-12T03:47:43.399Z,5.00
2017-11-12T03:50:11.501Z,5.00
2017-11-12T03:52:39.968Z,5.00
2017-11-12T03:55:07.907Z,5.00
2017-11-12T03:57:36.627Z,5.00
2017-11-12T04:00:05.104Z,5.00
2017-11-12T04:02:33.241Z,5.00
2017-11-12T04:05:01.970Z,4.90
2017-11-12T04:07:30.465Z,4.90
2017-11-12T04:09:58.992Z,4.90
2017-11-12T04:12:28.242Z,5.00
2017-11-12T04:14:56.769Z,4.90
2017-11-12T04:17:25.225Z,4.90
2017-11-12T04:19:53.692Z,5.00
2017-11-12T04:22:22.182Z,4.90
2017-11-12T04:24:50.659Z,4.90
2017-11-12T04:27:19.127Z,4.90
2017-11-12T04:29:47.604Z,4.80
2017-11-12T04:32:16.083Z,4.90
2017-11-12T04:34:44.543Z,4.90
2017-11-12T04:37:13.790Z,4.90
2017-11-12T04:39:42.286Z,4.80
2017-11-12T04:42:10.752Z,4.90
2017-11-12T04:44:39.573Z,4.90
2017-11-12T04:47:09.388Z,4.80
2017-11-12T04:49:39.344Z,4.70
2017-11-12T04:52:07.828Z,4.70
2017-11-12T04:54:36.115Z,4.80
2017-11-12T04:57:04.616Z,4.80
2017-11-12T04:59:33.112Z,4.90
2017-11-12T05:02:01.588Z,4.90
2017-11-12T05:04:30.071Z,5.00
2017-11-12T05:06:58.549Z,5.00
2017-11-12T05:09:27.020Z,5.00
2017-11-12T05:11:55.162Z,5.00
2017-11-12T05:14:23.879Z,5.00
2017-11-12T05:16:52.365Z,5.00
2017-11-12T05:19:20.824Z,4.90
2017-11-12T05:21:49.331Z,5.00
2017-11-12T05:24:17.808Z,5.00
2017-11-12T05:26:46.280Z,4.80
2017-11-12T05:29:14.892Z,4.80
2017-11-12T05:31:43.380Z,4.90
2017-11-12T05:34:11.848Z,4.90
2017-11-12T05:36:40.309Z,5.00
2017-11-12T05:39:08.784Z,5.00
2017-11-12T05:41:37.237Z,4.90
2017-11-12T05:44:05.724Z,4.80
2017-11-12T05:46:34.199Z,4.90
2017-11-12T05:49:02.705Z,5.00
2017-11-12T05:51:31.939Z,4.90
2017-11-12T05:54:00.521Z,4.90
2017-11-12T05:56:29.032Z,5.00
2017-11-12T05:58:57.321Z,5.00
2017-11-12T06:01:27.297Z,4.90
2017-11-12T06:03:55.781Z,4.90
2017-11-12T06:06:24.248Z,5.00
2017-11-12T06:08:53.564Z,5.00
2017-11-12T06:11:21.856Z,4.90
2017-11-12T06:13:50.171Z,4.90
2017-11-12T06:16:18.973Z,4.80
2017-11-12T06:18:48.017Z,4.90
2017-11-12T06:21:16.133Z,4.80
2017-11-12T06:23:45.178Z,4.90
2017-11-12T06:26:13.659Z,4.80
2017-11-12T06:28:42.200Z,4.90
2017-11-12T06:31:10.684Z,4.90
2017-11-12T06:33:39.935Z,5.00
2017-11-12T06:36:08.429Z,4.90
2017-11-12T06:38:36.913Z,4.90
2017-11-12T06:41:04.690Z,4.90
2017-11-12T06:43:33.186Z,4.90
2017-11-12T06:46:01.652Z,4.90
2017-11-12T06:48:30.133Z,4.90
2017-11-12T06:50:58.589Z,4.80
2017-11-12T06:53:27.100Z,4.90
2017-11-12T06:55:55.596Z,4.90
2017-11-12T06:58:24.073Z,4.80
2017-11-12T07:00:52.557Z,4.90
2017-11-12T07:03:21.113Z,4.90
2017-11-12T07:05:49.593Z,4.80
2017-11-12T07:08:18.061Z,4.80
2017-11-12T07:10:46.550Z,4.90
2017-11-12T07:13:15.049Z,4.90
2017-11-12T07:15:43.517Z,4.90
2017-11-12T07:18:12.116Z,4.90
2017-11-12T07:20:40.596Z,5.00
2017-11-12T07:23:09.079Z,4.90
2017-11-12T07:25:37.556Z,4.90
2017-11-12T07:28:06.012Z,4.80
2017-11-12T07:30:34.493Z,4.90
2017-11-12T07:33:02.961Z,5.00
2017-11-12T07:35:32.225Z,5.00
2017-11-12T07:38:00.707Z,5.00
2017-11-12T07:40:29.168Z,4.90
2017-11-12T07:42:57.708Z,4.90
2017-11-12T07:45:26.937Z,4.90
2017-11-12T07:47:55.405Z,4.80
2017-11-12T07:50:23.908Z,5.00
2017-11-12T07:52:52.959Z,5.10
2017-11-12T07:55:22.210Z,5.10
2017-11-12T07:57:51.060Z,5.00
2017-11-12T08:00:20.357Z,5.00
2017-11-12T08:02:49.516Z,5.00
2017-11-12T08:05:18.053Z,5.00
2017-11-12T08:07:47.294Z,5.00
2017-11-12T08:10:16.814Z,5.00
2017-11-12T08:12:45.286Z,4.90
2017-11-12T08:15:13.778Z,5.00
2017-11-12T08:17:42.241Z,5.00
2017-11-12T08:20:10.724Z,5.10
2017-11-12T08:22:38.857Z,5.00
2017-11-12T08:25:08.104Z,5.10
2017-11-12T08:27:36.816Z,5.00
2017-11-12T08:30:05.360Z,5.10
2017-11-12T08:32:33.836Z,5.10
2017-11-12T08:35:02.304Z,5.10
2017-11-12T08:37:30.772Z,5.20
2017-11-12T08:40:00.008Z,5.20
2017-11-12T08:42:28.478Z,5.10
2017-11-12T08:44:56.950Z,5.20
2017-11-12T08:47:25.436Z,5.20
2017-11-12T08:49:53.931Z,5.30
2017-11-12T08:52:22.056Z,5.20
2017-11-12T08:54:50.185Z,5.30
2017-11-12T08:57:18.670Z,5.20
2017-11-12T08:59:47.159Z,5.30
2017-11-12T09:02:15.651Z,5.40
2017-11-12T09:04:43.793Z,5.30
2017-11-12T09:07:12.502Z,5.30
2017-11-12T09:09:41.036Z,5.30
2017-11-12T09:12:09.529Z,5.30
2017-11-12T09:14:38.802Z,5.30
2017-11-12T09:17:07.285Z,5.30
2017-11-12T09:19:35.815Z,5.30
2017-11-12T09:22:04.320Z,5.30
2017-11-12T09:24:32.795Z,5.30
2017-11-12T09:27:01.268Z,5.30
2017-11-12T09:29:29.820Z,5.40
2017-11-12T09:31:58.292Z,5.40
2017-11-12T09:34:26.773Z,5.40
2017-11-12T09:36:55.268Z,5.40
2017-11-12T09:39:23.828Z,5.50
2017-11-12T09:41:52.313Z,5.50
2017-11-12T09:44:20.777Z,5.50
2017-11-12T09:46:49.279Z,5.60
2017-11-12T09:49:18.388Z,5.70
2017-11-12T09:51:46.875Z,5.60
2017-11-12T09:54:15.234Z,5.70
2017-11-12T09:56:43.708Z,5.70
2017-11-12T09:59:12.193Z,5.80
2017-11-12T10:01:40.656Z,5.80
2017-11-12T10:04:09.159Z,5.80
2017-11-12T10:06:37.640Z,5.90
2017-11-12T10:09:06.137Z,5.90
2017-11-12T10:11:34.614Z,5.90
2017-11-12T10:14:03.148Z,6.00
2017-11-12T10:16:31.608Z,6.10
2017-11-12T10:19:00.892Z,6.30
2017-11-12T10:21:29.372Z,6.20
2017-11-12T10:23:57.868Z,6.30
2017-11-12T10:26:26.375Z,6.30
2017-11-12T10:28:55.079Z,6.30
2017-11-12T10:31:23.571Z,6.30
2017-11-12T10:33:52.073Z,6.30
2017-11-12T10:36:20.653Z,6.40
2017-11-12T10:38:49.205Z,6.40
2017-11-12T10:41:17.744Z,6.40
2017-11-12T10:43:46.206Z,6.50
2017-11-12T10:46:14.701Z,6.50
2017-11-12T10:48:43.168Z,6.70
2017-11-12T10:51:11.654Z,6.70
2017-11-12T10:53:41.176Z,6.80
2017-11-12T10:56:09.661Z,6.80
2017-11-12T10:58:38.132Z,6.90
2017-11-12T11:01:06.602Z,7.00
2017-11-12T11:03:35.084Z,7.10
2017-11-12T11:06:03.589Z,7.20
2017-11-12T11:08:32.093Z,7.30
2017-11-12T11:11:01.321Z,7.50
2017-11-12T11:13:29.867Z,7.40
2017-11-12T11:15:59.121Z,7.60
2017-11-12T11:18:27.583Z,7.50
2017-11-12T11:20:56.065Z,7.60
2017-11-12T11:23:24.529Z,7.80
2017-11-12T11:25:53.773Z,8.30
2017-11-12T11:28:22.252Z,8.30
2017-11-12T11:30:50.732Z,8.40
2017-11-12T11:33:19.230Z,8.60
2017-11-12T11:35:47.705Z,8.60
2017-11-12T11:38:16.175Z,8.60
2017-11-12T11:40:44.674Z,8.60
2017-11-12T11:43:13.170Z,8.60
2017-11-12T11:45:41.664Z,8.60
2017-11-12T11:48:10.215Z,8.60
2017-11-12T11:50:38.828Z,8.50
2017-11-12T11:53:07.309Z,8.60
2017-11-12T11:55:36.065Z,8.70
2017-11-12T11:58:04.560Z,8.80
2017-11-12T12:00:33.207Z,8.90
2017-11-12T12:03:02.484Z,9.00
2017-11-12T12:05:30.953Z,9.00
2017-11-12T12:07:59.503Z,9.10
2017-11-12T12:10:27.974Z,9.10
2017-11-12T12:12:55.770Z,9.10
2017-11-12T12:15:24.245Z,9.20
2017-11-12T12:17:52.755Z,9.20
2017-11-12T12:20:21.246Z,9.30
2017-11-12T12:22:49.745Z,9.50
2017-11-12T12:25:19.045Z,9.60
2017-11-12T12:27:48.279Z,9.60
2017-11-12T12:30:16.780Z,9.60
2017-11-12T12:32:45.253Z,9.60
2017-11-12T12:35:13.805Z,9.40
2017-11-12T12:37:42.863Z,9.20
2017-11-12T12:40:11.366Z,9.10
2017-11-12T12:42:39.830Z,9.00
2017-11-12T12:45:08.315Z,9.00
2017-11-12T12:47:36.625Z,9.00
2017-11-12T12:50:04.766Z,9.00
2017-11-12T12:52:33.065Z,8.90
2017-11-12T12:55:02.271Z,8.60
2017-11-12T12:57:31.553Z,6.60
2017-11-12T13:00:00.308Z,6.50
2017-11-12T13:02:29.552Z,5.50
2017-11-12T13:04:58.046Z,5.00
2017-11-12T13:07:27.211Z,4.80
2017-11-12T13:09:56.486Z,4.60
2017-11-12T13:12:25.760Z,4.60
2017-11-12T13:14:54.448Z,4.40
2017-11-12T13:17:23.877Z,4.40
2017-11-12T13:19:52.009Z,4.40
2017-11-12T13:22:20.105Z,4.40
2017-11-12T13:24:48.978Z,4.30
2017-11-12T13:27:17.453Z,4.30
2017-11-12T13:29:46.736Z,4.20
2017-11-12T13:32:15.483Z,4.20
2017-11-12T13:34:43.433Z,4.30
2017-11-12T13:37:12.814Z,4.30
2017-11-12T13:39:42.093Z,4.20
2017-11-12T13:42:11.597Z,4.30
2017-11-12T13:44:40.533Z,4.30
2017-11-12T13:47:09.778Z,4.30
2017-11-12T13:49:38.262Z,4.30
2017-11-12T13:52:06.730Z,4.30
2017-11-12T13:54:35.241Z,4.40
2017-11-12T13:57:03.740Z,4.10
2017-11-12T13:59:32.240Z,4.20
2017-11-12T14:02:01.492Z,4.20
2017-11-12T14:04:30.385Z,4.20
2017-11-12T14:06:58.853Z,4.20
2017-11-12T14:09:27.338Z,4.20
2017-11-12T14:11:56.028Z,4.20
2017-11-12T14:14:24.509Z,4.20
2017-11-12T14:16:54.033Z,4.20
2017-11-12T14:19:23.166Z,4.20
2017-11-12T14:21:52.452Z,4.20
2017-11-12T14:24:21.604Z,4.20
2017-11-12T14:26:50.607Z,4.10
2017-11-12T14:29:20.085Z,3.60
2017-11-12T14:31:48.858Z,3.60
2017-11-12T14:34:17.636Z,3.40
2017-11-12T14:36:46.499Z,3.30
2017-11-12T14:39:15.240Z,3.30
2017-11-12T14:41:45.496Z,3.10
2017-11-12T14:44:14.256Z,3.00
2017-11-12T14:46:42.992Z,3.00
2017-11-12T14:49:11.753Z,3.00
2017-11-12T14:51:41.281Z,2.80
2017-11-12T14:54:10.050Z,2.70
2017-11-12T14:56:39.725Z,2.70
2017-11-12T14:59:08.453Z,2.60
2017-11-12T15:01:38.017Z,2.50
2017-11-12T15:04:06.794Z,2.40
2017-11-12T15:06:35.532Z,2.50
2017-11-12T15:09:05.097Z,2.50
2017-11-12T15:11:33.854Z,2.40
2017-11-12T15:14:02.630Z,2.40
2017-11-12T15:16:31.632Z,2.30
2017-11-12T15:19:00.419Z,2.30
2017-11-12T15:21:29.186Z,2.20
2017-11-12T15:23:58.764Z,2.20
2017-11-12T15:26:27.524Z,2.10
2017-11-12T15:28:56.301Z,2.20
2017-11-12T15:31:25.066Z,2.20
2017-11-12T15:33:54.609Z,2.00
2017-11-12T15:36:23.485Z,1.90
2017-11-12T15:38:52.225Z,2.00
2017-11-12T15:41:20.988Z,1.90
2017-11-12T15:43:49.765Z,1.90
2017-11-12T15:46:18.406Z,1.80
2017-11-12T15:48:47.164Z,1.90
2017-11-12T15:51:16.019Z,1.80
2017-11-12T15:53:45.015Z,1.80
2017-11-12T15:56:13.757Z,1.90
2017-11-12T15:58:42.517Z,1.80
2017-11-12T16:01:11.246Z,1.90
2017-11-12T16:03:40.000Z,2.00
2017-11-12T16:06:08.749Z,1.90
2017-11-12T16:08:38.265Z,1.90
2017-11-12T16:11:07.000Z,1.80
2017-11-12T16:13:35.771Z,1.80
2017-11-12T16:16:04.534Z,1.80
2017-11-12T16:18:33.273Z,1.80
2017-11-12T16:21:02.021Z,1.80
2017-11-12T16:23:30.773Z,1.80
2017-11-12T16:25:59.599Z,1.80
2017-11-12T16:28:28.340Z,1.90
2017-11-12T16:30:57.102Z,1.60
2017-11-12T16:33:25.866Z,1.70
2017-11-12T16:35:54.708Z,1.60
2017-11-12T16:38:23.445Z,1.60
2017-11-12T16:40:52.188Z,1.00
2017-11-12T16:43:20.929Z,1.70
2017-11-12T16:45:49.562Z,1.70
2017-11-12T16:48:18.417Z,1.60
2017-11-12T16:50:47.413Z,1.60
2017-11-12T16:53:16.164Z,1.70
2017-11-12T16:55:45.685Z,1.70
2017-11-12T16:58:14.468Z,1.60
2017-11-12T17:00:42.652Z,1.70
2017-11-12T17:03:11.073Z,1.70
2017-11-12T17:05:39.818Z,1.70
2017-11-12T17:08:08.574Z,1.80
2017-11-12T17:10:37.339Z,1.70
2017-11-12T17:13:06.104Z,1.80
2017-11-12T17:15:34.828Z,1.80
2017-11-12T17:18:03.601Z,1.80
2017-11-12T17:20:32.443Z,1.80
2017-11-12T17:23:00.521Z,1.70
2017-11-12T17:25:29.267Z,1.70
2017-11-12T17:27:58.026Z,1.60
2017-11-12T17:30:26.789Z,1.60
2017-11-12T17:32:55.539Z,1.70
2017-11-12T17:35:25.091Z,1.70
2017-11-12T17:37:53.856Z,1.60
2017-11-12T17:40:23.424Z,1.70
2017-11-12T17:42:52.176Z,1.60
2017-11-12T17:45:22.471Z,1.80
2017-11-12T17:47:51.474Z,1.80
2017-11-12T17:50:21.011Z,2.00
2017-11-12T17:52:49.793Z,1.90
2017-11-12T17:55:18.569Z,2.00
2017-11-12T17:57:47.350Z,2.10
2017-11-12T18:00:16.530Z,2.10
2017-11-12T18:02:45.305Z,2.10
2017-11-12T18:05:14.066Z,2.10
2017-11-12T18:07:42.974Z,2.20
2017-11-12T18:10:11.732Z,2.20
2017-11-12T18:12:40.522Z,2.20
2017-11-12T18:15:09.110Z,2.20
2017-11-12T18:17:37.867Z,2.20
2017-11-12T18:20:07.277Z,2.30
2017-11-12T18:22:36.116Z,2.20
2017-11-12T18:25:05.408Z,2.30
2017-11-12T18:27:34.180Z,2.20
2017-11-12T18:30:02.951Z,2.30
2017-11-12T18:32:32.484Z,2.40
2017-11-12T18:35:01.465Z,2.30
2017-11-12T18:37:30.211Z,2.40
2017-11-12T18:39:58.878Z,2.40
2017-11-12T18:42:27.458Z,0.20
2017-11-12T18:44:56.218Z,2.50
2017-11-12T18:47:24.848Z,2.50
2017-11-12T18:49:53.405Z,2.50
2017-11-12T18:52:21.985Z,2.50
2017-11-12T18:54:50.845Z,2.60
2017-11-12T18:57:24.737Z,2.60
2017-11-12T18:59:54.800Z,2.50
2017-11-12T19:02:43.022Z,2.60
2017-11-12T19:05:18.017Z,2.60
2017-11-12T19:08:03.170Z,2.60
2017-11-12T19:10:31.781Z,2.50
2017-11-12T19:13:00.407Z,2.60
2017-11-12T19:15:29.065Z,2.60
2017-11-12T19:17:57.644Z,2.70
2017-11-12T19:33:49.441Z,2.80
2017-11-12T19:36:18.104Z,2.80
2017-11-12T19:38:46.852Z,2.80
2017-11-12T19:41:15.657Z,2.80
2017-11-12T19:43:45.181Z,2.80
2017-11-12T19:46:13.685Z,2.80
2017-11-12T19:48:42.227Z,2.80
2017-11-12T19:51:10.727Z,2.80
2017-11-12T19:53:40.047Z,5.60
2017-11-12T19:56:08.533Z,2.80
2017-11-12T19:58:37.060Z,2.80
2017-11-12T20:01:07.497Z,2.80
2017-11-12T20:03:36.306Z,2.70
2017-11-12T20:06:05.931Z,2.80
2017-11-12T20:08:34.722Z,2.70
2017-11-12T20:11:03.325Z,5.30
2017-11-12T20:13:31.924Z,2.80
2017-11-12T20:16:00.734Z,2.80
2017-11-12T20:18:29.524Z,2.90
2017-11-12T20:20:58.075Z,2.80
2017-11-12T20:23:26.868Z,2.70
2017-11-12T20:25:55.309Z,2.70
2017-11-12T20:28:24.089Z,2.70
2017-11-12T20:30:52.621Z,2.80
2017-11-12T20:33:21.667Z,2.80
2017-11-12T20:35:50.474Z,2.80
2017-11-12T20:38:19.432Z,2.90
2017-11-12T20:40:48.517Z,2.90
2017-11-12T20:43:17.326Z,2.90
2017-11-12T20:45:45.941Z,2.90
2017-11-12T20:48:14.518Z,2.80
2017-11-12T20:50:43.841Z,2.80
2017-11-12T20:53:12.568Z,2.70
2017-11-12T20:55:41.169Z,2.80
2017-11-12T20:58:09.753Z,2.80
2017-11-12T21:00:53.234Z,2.80
2017-11-12T21:03:21.849Z,2.70
2017-11-12T21:06:01.127Z,2.70
2017-11-12T21:08:30.472Z,2.70
2017-11-12T21:10:59.033Z,2.60
2017-11-12T21:13:27.629Z,2.70
2017-11-12T21:15:56.201Z,2.70
2017-11-12T21:18:24.754Z,2.60
2017-11-12T21:21:11.896Z,2.70
2017-11-12T21:23:43.294Z,2.60
2017-11-12T21:26:11.917Z,2.50
2017-11-12T21:28:42.578Z,2.60
2017-11-12T21:31:26.048Z,2.60
2017-11-12T21:33:55.872Z,2.60
2017-11-12T21:36:34.356Z,2.50
2017-11-12T21:39:03.009Z,2.60
2017-11-12T21:41:32.369Z,2.60
2017-11-12T21:44:00.942Z,2.50
2017-11-12T21:46:29.571Z,2.50
2017-11-12T21:48:59.127Z,2.50
2017-11-12T21:51:27.909Z,2.50
2017-11-12T21:53:56.664Z,2.60
2017-11-12T21:56:26.201Z,2.50
2017-11-12T21:58:54.986Z,2.50
2017-11-12T22:01:23.754Z,2.50
2017-11-12T22:03:53.271Z,2.50
2017-11-12T22:06:22.802Z,2.50
2017-11-12T22:08:51.554Z,2.40
2017-11-12T22:11:21.083Z,2.50
2017-11-12T22:13:49.861Z,2.40
2017-11-12T22:16:18.597Z,2.40
2017-11-12T22:18:47.412Z,2.50
2017-11-12T22:21:15.985Z,2.40
2017-11-12T22:23:44.536Z,2.50
2017-11-12T22:26:13.185Z,2.50
2017-11-12T22:28:42.704Z,2.40
2017-11-12T22:31:11.458Z,2.40
2017-11-12T22:33:40.198Z,2.50
2017-11-12T22:36:08.966Z,2.40
2017-11-12T22:38:38.467Z,2.40
2017-11-12T22:41:07.260Z,2.40
2017-11-12T22:43:36.852Z,2.40
2017-11-12T22:46:05.609Z,2.40
2017-11-12T22:48:34.339Z,2.30
2017-11-12T22:51:03.862Z,2.30
2017-11-12T22:53:32.697Z,2.30
2017-11-12T22:56:01.433Z,2.30
2017-11-12T22:58:30.953Z,2.30
2017-11-12T23:00:59.528Z,2.20
2017-11-12T23:03:29.045Z,2.20
2017-11-12T23:05:57.768Z,2.20
2017-11-12T23:08:26.508Z,2.30
2017-11-12T23:10:55.848Z,2.30
2017-11-12T23:13:24.601Z,2.30
2017-11-12T23:15:54.116Z,2.30
2017-11-12T23:18:23.021Z,2.30
2017-11-12T23:20:51.767Z,2.20
2017-11-12T23:23:20.501Z,2.30
2017-11-12T23:25:49.267Z,2.30
2017-11-12T23:28:18.388Z,2.20
2017-11-12T23:30:47.217Z,2.20
2017-11-12T23:33:15.948Z,2.30
2017-11-12T23:35:45.477Z,2.30
2017-11-12T23:38:14.256Z,2.30
2017-11-12T23:40:43.236Z,2.40
2017-11-12T23:43:11.996Z,2.40
2017-11-12T23:45:41.017Z,2.30
2017-11-12T23:48:10.511Z,2.40
2017-11-12T23:50:40.066Z,2.40
2017-11-12T23:53:08.873Z,2.30
2017-11-12T23:55:37.617Z,2.40
2017-11-12T23:58:05.699Z,2.30
